Forest Ranch, CA (95942)

1:13 PM PDT on September 17, 2014 (GMT -0700)
Cohasset - Cohasset Loop | Change Station
CLOSE
Current Station
Personal Weather Station
Location: Cohasset, CA
Elevation: 3100 ft
Nearby Weather Stations

Elev 3100 ft 39.94 °N, 121.73 °W | Updated 27 seconds ago

Clear
Clear
80.2 °F
Feels Like 79 °F
N
4.6
Wind Variable Wind from SW
Gusts 4.6 mph

Today
High -- | Low -- °F
--% Chance of Precip.
Yesterday
High -- | Low -- °F
Precip. -- in
6:49 AM 7:11 PM
Waning Crescent, 33% visible
Pressure 29.75 in
Visibility 25.0 miles
Clouds Few 6000 ft
Scattered Clouds 18000 ft
Heat Index 79 °F
Dew Point 34 °F
Humidity 19%
Rainfall 0.00 in
Snow Depth 0 in , 0 in , 0 in
UV 6 out of 12
Pollen 6.60 out of 12
Air Quality Not available.
Flu Activity Not available.
METAR KCIC 171947Z 15016KT 25SM FEW060 SCT180 31/06 A2975 RMK FU FEW060

More Conditions Fewer Conditions

Pressure 29.75 in
Visibility 25.0 miles
Clouds Few 6000 ft
Scattered Clouds 18000 ft
Heat Index 79 °F
Dew Point 34 °F
Humidity 19%
Rainfall 0.00 in
Snow Depth 0 in , 0 in , 0 in
UV 6 out of 12
Pollen 6.60 out of 12
Air Quality Not available.
Flu Activity Not available.
METAR KCIC 171947Z 15016KT 25SM FEW060 SCT180 31/06 A2975 RMK FU FEW060

More Conditions Fewer Conditions

10-Day Weather Forecast

Almanac

Astronomy

Sep. 17, 2014 Rise Set
Actual Time 6:49 AM PDT 7:11 PM PDT
Civil Twilight 6:21 AM PDT 7:38 PM PDT
Nautical Twilight 5:49 AM PDT 8:10 PM PDT
Astronomical Twilight 5:17 AM PDT 8:42 PM PDT
Moon 12:53 AM PDT 3:25 PM PDT
Length of Visible Light 13h 16m
Length of Day
12h 22m
Tomorrow will be 2m 37s shorter.
Waning Crescent, 33% of the Moon is Illuminated
Today
Waning Crescent
Sep 24
New
Oct 1
First Quarter
Oct 8
Full
Oct 15
Last Quarter

Today's Extremes

State Highs State Lows

Community

WunderPhotos

Upload Photos

1,754,157 photos uploaded!

Nearby

Snow Depth

Station Depth Elevation
Summit Meadow 0 in 9122 ft
Leavitt Meadows 0 in 7200 ft
CSS Lab 0 in 6900 ft
Adin Mountain 1 in 6200 ft

Earthquake Activity

City Distance Mag. Time & Date
Lakeview, Oregon 157 miles 2.5 10:14 AM PDT
2014-09-17
Lakeview, Oregon 159 miles 2.6 1:34 PM PDT
2014-09-16
Cobb, California 109 miles 2.7 1:23 PM PDT
2014-09-16
Lakeview, Oregon 158 miles 2.5 4:10 AM PDT
2014-09-16
Minimum magnitude displayed is 2.5.

Coastal Water Temperatures

Place Temperature
No Stations Reporting

Nearby Weather Stations